Aviation Digital Data Service (ADDS)

Output produced by METARs form (0205 UTC 22 April 2019)
found at http://www.aviationweather.gov/metar/data/
 
Forecast for: TKPK (GOLDEN ROCKS/NEV, KN)
Text: TKPK 212330Z 2200/2224 06012KT P6SM VCSH FEW018 SCT020 AMD NOT SKED 2202/2211
Forecast period: 0000 UTC 22 April 2019 to 0000 UTC 23 April 2019
Forecast type: FROM: standard forecast or significant change
Winds: from the ENE (60 degrees) at 14 MPH (12 knots; 6.2 m/s)
Visibility: 6 or more miles 10+ km)
Ceiling: at least 12,000 feet AGL
Clouds: few clouds at 1800 feet AGL
scattered clouds at 2000 feet AGL
Weather: VCSH  (showers in vicinity)